Terminal Aerodrome Forecast
Issued by NWS

Home | Current Version | Previous Version | Text Only | Print | Product List | Glossary On
Versions: 1 2 3 4 5 6 7 8 9 10 11 12 13 14 15 16 17 18 19 20 21 22 23 24 25 26 27 28 29
944
FTUS42 KRAH 141740
TAFINT
TAF
KINT 141740Z 1418/1518 13005KT P6SM OVC100
     FM142000 12005KT P6SM OVC060
     FM150200 08004KT P6SM SCT025 OVC050
      TEMPO 1503/1507 5SM -SN
     FM150700 06005KT 4SM -SN BR OVC025
     FM151000 04005KT 3SM -SN BR OVC015=

USA.gov is the U.S. government's official web portal to all federal, state and local government web resources and services.